sensor_id;sensor_type;location;lat;lon;timestamp;pressure;altitude;pressure_sealevel;temperature;humidity
63006;BME280;53704;52.532;6.426;2023-06-14T00:02:11;101574.72;;;15.69;100.00
63006;BME280;53704;52.532;6.426;2023-06-14T00:04:37;101574.34;;;15.72;100.00
63006;BME280;53704;52.532;6.426;2023-06-14T00:07:05;101567.81;;;15.58;100.00
63006;BME280;53704;52.532;6.426;2023-06-14T00:09:34;101569.31;;;15.61;100.00
63006;BME280;53704;52.532;6.426;2023-06-14T00:12:00;101567.69;;;15.51;100.00
63006;BME280;53704;52.532;6.426;2023-06-14T00:14:25;101566.78;;;15.28;100.00
63006;BME280;53704;52.532;6.426;2023-06-14T00:16:51;101570.94;;;15.38;100.00
63006;BME280;53704;52.532;6.426;2023-06-14T00:19:18;101569.91;;;15.48;100.00
63006;BME280;53704;52.532;6.426;2023-06-14T00:21:47;101565.03;;;15.35;100.00
63006;BME280;53704;52.532;6.426;2023-06-14T00:24:12;101566.28;;;15.24;100.00
63006;BME280;53704;52.532;6.426;2023-06-14T00:26:38;101567.81;;;15.27;100.00
63006;BME280;53704;52.532;6.426;2023-06-14T00:29:03;101570.44;;;15.12;100.00
63006;BME280;53704;52.532;6.426;2023-06-14T00:31:29;101571.56;;;15.17;100.00
63006;BME280;53704;52.532;6.426;2023-06-14T00:33:54;101559.94;;;15.00;100.00
63006;BME280;53704;52.532;6.426;2023-06-14T00:36:20;101561.81;;;15.00;100.00
63006;BME280;53704;52.532;6.426;2023-06-14T00:38:48;101566.91;;;14.95;100.00
63006;BME280;53704;52.532;6.426;2023-06-14T00:41:14;101567.03;;;15.10;100.00
63006;BME280;53704;52.532;6.426;2023-06-14T00:43:39;101565.53;;;15.07;100.00
63006;BME280;53704;52.532;6.426;2023-06-14T00:46:05;101570.59;;;15.02;100.00
63006;BME280;53704;52.532;6.426;2023-06-14T00:48:30;101567.44;;;14.90;100.00
63006;BME280;53704;52.532;6.426;2023-06-14T00:50:57;101572.53;;;14.77;100.00
63006;BME280;53704;52.532;6.426;2023-06-14T00:53:23;101572.38;;;14.87;100.00
63006;BME280;53704;52.532;6.426;2023-06-14T00:55:50;101577.28;;;14.83;100.00
63006;BME280;53704;52.532;6.426;2023-06-14T00:58:15;101579.66;;;14.78;100.00
63006;BME280;53704;52.532;6.426;2023-06-14T01:00:41;101568.03;;;14.69;100.00
63006;BME280;53704;52.532;6.426;2023-06-14T01:03:07;101573.09;;;14.64;100.00
63006;BME280;53704;52.532;6.426;2023-06-14T01:05:33;101575.59;;;14.82;100.00
63006;BME280;53704;52.532;6.426;2023-06-14T01:11:02;101580.38;;;14.63;100.00
63006;BME280;53704;52.532;6.426;2023-06-14T01:13:34;101580.34;;;14.72;100.00
63006;BME280;53704;52.532;6.426;2023-06-14T01:16:01;101578.84;;;14.53;100.00
63006;BME280;53704;52.532;6.426;2023-06-14T01:18:28;101567.16;;;14.52;100.00
63006;BME280;53704;52.532;6.426;2023-06-14T01:20:55;101574.44;;;14.43;100.00
63006;BME280;53704;52.532;6.426;2023-06-14T01:23:22;101573.75;;;14.50;100.00
63006;BME280;53704;52.532;6.426;2023-06-14T01:25:49;101573.78;;;14.41;100.00
63006;BME280;53704;52.532;6.426;2023-06-14T01:28:19;101579.88;;;14.27;100.00
63006;BME280;53704;52.532;6.426;2023-06-14T01:30:47;101574.47;;;14.35;100.00
63006;BME280;53704;52.532;6.426;2023-06-14T01:33:20;101574.78;;;14.32;100.00
63006;BME280;53704;52.532;6.426;2023-06-14T01:35:47;101576.34;;;14.26;100.00
63006;BME280;53704;52.532;6.426;2023-06-14T01:38:13;101581.94;;;14.25;100.00
63006;BME280;53704;52.532;6.426;2023-06-14T01:40:39;101580.56;;;14.13;100.00
63006;BME280;53704;52.532;6.426;2023-06-14T01:43:06;101581.56;;;14.11;100.00
63006;BME280;53704;52.532;6.426;2023-06-14T01:45:33;101582.06;;;14.07;100.00
63006;BME280;53704;52.532;6.426;2023-06-14T01:48:00;101582.59;;;14.10;100.00
63006;BME280;53704;52.532;6.426;2023-06-14T01:50:30;101577.16;;;14.02;100.00
63006;BME280;53704;52.532;6.426;2023-06-14T01:52:55;101581.41;;;13.97;100.00
63006;BME280;53704;52.532;6.426;2023-06-14T01:55:21;101582.91;;;13.91;100.00
63006;BME280;53704;52.532;6.426;2023-06-14T01:57:48;101588.31;;;13.91;100.00
63006;BME280;53704;52.532;6.426;2023-06-14T02:00:14;101585.44;;;13.92;100.00
63006;BME280;53704;52.532;6.426;2023-06-14T02:02:41;101585.28;;;13.86;100.00
63006;BME280;53704;52.532;6.426;2023-06-14T02:05:06;101585.78;;;13.89;100.00
63006;BME280;53704;52.532;6.426;2023-06-14T02:07:32;101587.97;;;13.86;100.00
63006;BME280;53704;52.532;6.426;2023-06-14T02:09:58;101586.28;;;13.93;100.00
63006;BME280;53704;52.532;6.426;2023-06-14T02:12:24;101582.22;;;13.81;100.00
63006;BME280;53704;52.532;6.426;2023-06-14T02:14:49;101583.56;;;13.85;100.00
63006;BME280;53704;52.532;6.426;2023-06-14T02:17:15;101590.84;;;13.84;100.00
63006;BME280;53704;52.532;6.426;2023-06-14T02:19:41;101581.34;;;13.72;100.00
63006;BME280;53704;52.532;6.426;2023-06-14T02:22:07;101578.47;;;13.57;100.00
63006;BME280;53704;52.532;6.426;2023-06-14T02:24:33;101582.66;;;13.51;100.00
63006;BME280;53704;52.532;6.426;2023-06-14T02:26:58;101582.19;;;13.64;100.00
63006;BME280;53704;52.532;6.426;2023-06-14T02:29:23;101585.19;;;13.53;100.00
63006;BME280;53704;52.532;6.426;2023-06-14T02:31:49;101585.22;;;13.61;100.00
63006;BME280;53704;52.532;6.426;2023-06-14T02:34:15;101584.72;;;13.57;100.00
63006;BME280;53704;52.532;6.426;2023-06-14T02:36:43;101586.59;;;13.73;100.00
63006;BME280;53704;52.532;6.426;2023-06-14T02:39:09;101581.69;;;13.61;100.00
63006;BME280;53704;52.532;6.426;2023-06-14T02:41:35;101587.91;;;13.53;100.00
63006;BME280;53704;52.532;6.426;2023-06-14T02:44:01;101586.19;;;13.44;100.00
63006;BME280;53704;52.532;6.426;2023-06-14T02:46:26;101590.75;;;13.43;100.00
63006;BME280;53704;52.532;6.426;2023-06-14T02:48:52;101593.59;;;13.33;100.00
63006;BME280;53704;52.532;6.426;2023-06-14T02:51:17;101592.84;;;13.23;100.00
63006;BME280;53704;52.532;6.426;2023-06-14T02:53:43;101593.53;;;13.25;100.00
63006;BME280;53704;52.532;6.426;2023-06-14T02:56:09;101590.84;;;13.25;100.00
63006;BME280;53704;52.532;6.426;2023-06-14T02:58:36;101594.19;;;13.19;100.00
63006;BME280;53704;52.532;6.426;2023-06-14T03:01:02;101596.44;;;13.32;100.00
63006;BME280;53704;52.532;6.426;2023-06-14T03:03:29;101595.44;;;13.33;100.00
63006;BME280;53704;52.532;6.426;2023-06-14T03:05:55;101602.69;;;13.32;100.00
63006;BME280;53704;52.532;6.426;2023-06-14T03:08:21;101600.75;;;13.16;100.00
63006;BME280;53704;52.532;6.426;2023-06-14T03:10:48;101606.84;;;13.18;100.00
63006;BME280;53704;52.532;6.426;2023-06-14T03:13:14;101607.22;;;13.24;100.00
63006;BME280;53704;52.532;6.426;2023-06-14T03:15:43;101606.00;;;13.18;100.00
63006;BME280;53704;52.532;6.426;2023-06-14T03:18:10;101607.88;;;13.17;100.00
63006;BME280;53704;52.532;6.426;2023-06-14T03:20:37;101612.41;;;13.17;100.00
63006;BME280;53704;52.532;6.426;2023-06-14T04:12:07;101658.66;;;13.06;100.00
63006;BME280;53704;52.532;6.426;2023-06-14T04:14:37;101663.41;;;13.12;100.00
63006;BME280;53704;52.532;6.426;2023-06-14T04:17:03;101667.72;;;13.23;100.00
63006;BME280;53704;52.532;6.426;2023-06-14T04:19:29;101671.25;;;13.23;100.00
63006;BME280;53704;52.532;6.426;2023-06-14T04:21:54;101671.44;;;13.30;100.00
63006;BME280;53704;52.532;6.426;2023-06-14T04:24:20;101670.28;;;13.32;100.00
63006;BME280;53704;52.532;6.426;2023-06-14T04:26:46;101672.38;;;13.38;100.00
63006;BME280;53704;52.532;6.426;2023-06-14T04:29:14;101681.88;;;13.43;100.00
63006;BME280;53704;52.532;6.426;2023-06-14T04:31:42;101681.41;;;13.47;100.00
63006;BME280;53704;52.532;6.426;2023-06-14T04:34:07;101687.28;;;13.43;100.00
63006;BME280;53704;52.532;6.426;2023-06-14T04:36:34;101677.00;;;13.54;100.00
63006;BME280;53704;52.532;6.426;2023-06-14T04:39:02;101680.94;;;13.60;100.00
63006;BME280;53704;52.532;6.426;2023-06-14T04:41:31;101689.09;;;13.68;100.00
63006;BME280;53704;52.532;6.426;2023-06-14T04:43:58;101693.69;;;13.76;100.00
63006;BME280;53704;52.532;6.426;2023-06-14T04:46:27;101694.53;;;13.85;100.00
63006;BME280;53704;52.532;6.426;2023-06-14T04:48:54;101697.09;;;13.86;100.00
63006;BME280;53704;52.532;6.426;2023-06-14T04:51:20;101704.38;;;13.86;100.00
63006;BME280;53704;52.532;6.426;2023-06-14T04:53:47;101704.53;;;13.92;100.00
63006;BME280;53704;52.532;6.426;2023-06-14T04:56:15;101708.97;;;14.02;100.00
63006;BME280;53704;52.532;6.426;2023-06-14T04:58:40;101709.88;;;14.10;100.00
63006;BME280;53704;52.532;6.426;2023-06-14T05:01:06;101711.19;;;14.15;100.00
63006;BME280;53704;52.532;6.426;2023-06-14T05:03:34;101712.25;;;14.22;100.00
63006;BME280;53704;52.532;6.426;2023-06-14T05:06:00;101709.53;;;14.22;100.00
63006;BME280;53704;52.532;6.426;2023-06-14T05:08:25;101717.84;;;14.20;100.00
63006;BME280;53704;52.532;6.426;2023-06-14T05:10:52;101711.91;;;14.25;100.00
63006;BME280;53704;52.532;6.426;2023-06-14T05:13:18;101725.81;;;14.38;100.00
63006;BME280;53704;52.532;6.426;2023-06-14T05:15:43;101721.75;;;14.42;100.00
63006;BME280;53704;52.532;6.426;2023-06-14T05:18:09;101722.59;;;14.43;100.00
63006;BME280;53704;52.532;6.426;2023-06-14T05:20:35;101723.63;;;14.50;100.00
63006;BME280;53704;52.532;6.426;2023-06-14T05:23:02;101728.03;;;14.59;100.00
63006;BME280;53704;52.532;6.426;2023-06-14T05:25:28;101725.38;;;14.68;100.00
63006;BME280;53704;52.532;6.426;2023-06-14T05:27:53;101734.16;;;14.78;100.00
63006;BME280;53704;52.532;6.426;2023-06-14T05:30:19;101732.13;;;14.80;100.00
63006;BME280;53704;52.532;6.426;2023-06-14T05:32:45;101726.56;;;14.90;100.00
63006;BME280;53704;52.532;6.426;2023-06-14T05:35:10;101723.13;;;14.96;100.00
63006;BME280;53704;52.532;6.426;2023-06-14T05:37:36;101729.75;;;15.01;100.00
63006;BME280;53704;52.532;6.426;2023-06-14T05:40:03;101728.56;;;15.04;100.00
63006;BME280;53704;52.532;6.426;2023-06-14T05:42:30;101732.94;;;15.22;100.00
63006;BME280;53704;52.532;6.426;2023-06-14T05:44:56;101736.47;;;15.30;100.00
63006;BME280;53704;52.532;6.426;2023-06-14T05:47:21;101738.34;;;15.30;100.00
63006;BME280;53704;52.532;6.426;2023-06-14T05:49:47;101731.53;;;15.50;100.00
63006;BME280;53704;52.532;6.426;2023-06-14T05:52:12;101739.00;;;15.48;100.00
63006;BME280;53704;52.532;6.426;2023-06-14T05:54:38;101743.00;;;15.61;100.00
63006;BME280;53704;52.532;6.426;2023-06-14T05:57:04;101743.69;;;15.63;100.00
63006;BME280;53704;52.532;6.426;2023-06-14T05:59:31;101747.41;;;15.78;100.00
63006;BME280;53704;52.532;6.426;2023-06-14T06:01:57;101750.91;;;15.87;100.00
63006;BME280;53704;52.532;6.426;2023-06-14T06:04:23;101750.66;;;16.05;100.00
63006;BME280;53704;52.532;6.426;2023-06-14T06:06:49;101753.94;;;16.00;100.00
63006;BME280;53704;52.532;6.426;2023-06-14T06:09:15;101755.84;;;16.23;100.00
63006;BME280;53704;52.532;6.426;2023-06-14T06:11:40;101758.19;;;16.26;100.00
63006;BME280;53704;52.532;6.426;2023-06-14T06:14:06;101764.06;;;16.38;100.00
63006;BME280;53704;52.532;6.426;2023-06-14T06:16:32;101766.59;;;16.39;100.00
63006;BME280;53704;52.532;6.426;2023-06-14T06:18:58;101765.16;;;16.52;100.00
63006;BME280;53704;52.532;6.426;2023-06-14T06:21:23;101767.94;;;16.67;100.00
63006;BME280;53704;52.532;6.426;2023-06-14T06:23:48;101768.84;;;16.82;100.00
63006;BME280;53704;52.532;6.426;2023-06-14T06:26:14;101764.81;;;17.01;100.00
63006;BME280;53704;52.532;6.426;2023-06-14T06:28:40;101762.19;;;17.08;100.00
63006;BME280;53704;52.532;6.426;2023-06-14T06:31:06;101767.88;;;17.21;100.00
63006;BME280;53704;52.532;6.426;2023-06-14T06:33:31;101765.16;;;17.21;100.00
63006;BME280;53704;52.532;6.426;2023-06-14T06:35:57;101762.53;;;17.28;100.00
63006;BME280;53704;52.532;6.426;2023-06-14T06:38:22;101765.72;;;17.31;100.00
63006;BME280;53704;52.532;6.426;2023-06-14T06:40:48;101777.00;;;17.43;100.00
63006;BME280;53704;52.532;6.426;2023-06-14T06:43:13;101769.50;;;17.60;100.00
63006;BME280;53704;52.532;6.426;2023-06-14T06:45:40;101771.09;;;17.69;100.00
63006;BME280;53704;52.532;6.426;2023-06-14T06:48:05;101772.03;;;17.77;100.00
63006;BME280;53704;52.532;6.426;2023-06-14T06:50:31;101786.41;;;17.85;100.00
63006;BME280;53704;52.532;6.426;2023-06-14T06:52:56;101777.97;;;17.95;100.00
63006;BME280;53704;52.532;6.426;2023-06-14T06:55:22;101782.94;;;18.06;100.00
63006;BME280;53704;52.532;6.426;2023-06-14T06:57:48;101781.03;;;18.22;97.33
63006;BME280;53704;52.532;6.426;2023-06-14T07:00:15;101786.09;;;18.25;95.63
63006;BME280;53704;52.532;6.426;2023-06-14T07:02:41;101780.34;;;18.35;97.13
63006;BME280;53704;52.532;6.426;2023-06-14T07:05:07;101777.16;;;18.31;99.28
63006;BME280;53704;52.532;6.426;2023-06-14T07:07:34;101791.06;;;18.58;94.98
63006;BME280;53704;52.532;6.426;2023-06-14T07:09:59;101789.13;;;18.73;91.94
63006;BME280;53704;52.532;6.426;2023-06-14T07:12:25;101784.78;;;18.57;96.65
63006;BME280;53704;52.532;6.426;2023-06-14T07:14:51;101780.81;;;18.81;96.47
63006;BME280;53704;52.532;6.426;2023-06-14T07:17:16;101797.84;;;18.84;96.48
63006;BME280;53704;52.532;6.426;2023-06-14T07:19:41;101797.59;;;19.00;94.32
63006;BME280;53704;52.532;6.426;2023-06-14T07:22:07;101793.34;;;19.19;90.86
63006;BME280;53704;52.532;6.426;2023-06-14T07:24:33;101796.00;;;19.34;92.26
63006;BME280;53704;52.532;6.426;2023-06-14T07:27:00;101787.66;;;19.42;88.92
63006;BME280;53704;52.532;6.426;2023-06-14T07:29:25;101799.25;;;19.51;91.24
63006;BME280;53704;52.532;6.426;2023-06-14T07:31:52;101796.59;;;19.58;87.37
63006;BME280;53704;52.532;6.426;2023-06-14T07:34:17;101795.34;;;19.67;85.21
63006;BME280;53704;52.532;6.426;2023-06-14T07:36:43;101798.84;;;19.82;84.72
63006;BME280;53704;52.532;6.426;2023-06-14T07:39:10;101801.19;;;19.92;84.82
63006;BME280;53704;52.532;6.426;2023-06-14T07:41:35;101791.56;;;19.96;85.26
63006;BME280;53704;52.532;6.426;2023-06-14T07:44:01;101795.81;;;20.05;83.10
63006;BME280;53704;52.532;6.426;2023-06-14T07:46:26;101800.28;;;20.13;82.63
63006;BME280;53704;52.532;6.426;2023-06-14T07:48:52;101808.28;;;20.21;86.26
63006;BME280;53704;52.532;6.426;2023-06-14T07:51:17;101809.56;;;20.25;80.33
63006;BME280;53704;52.532;6.426;2023-06-14T07:53:43;101806.19;;;20.30;78.82
63006;BME280;53704;52.532;6.426;2023-06-14T07:56:08;101815.91;;;20.39;77.97
63006;BME280;53704;52.532;6.426;2023-06-14T07:58:34;101812.97;;;20.41;76.95
63006;BME280;53704;52.532;6.426;2023-06-14T08:00:59;101812.84;;;20.56;78.00
63006;BME280;53704;52.532;6.426;2023-06-14T08:03:26;101803.38;;;20.65;75.14
63006;BME280;53704;52.532;6.426;2023-06-14T08:05:52;101810.34;;;20.68;75.29
63006;BME280;53704;52.532;6.426;2023-06-14T08:08:17;101810.16;;;20.76;78.38
63006;BME280;53704;52.532;6.426;2023-06-14T08:10:43;101804.72;;;20.83;74.37
63006;BME280;53704;52.532;6.426;2023-06-14T08:13:09;101809.97;;;20.98;73.95
63006;BME280;53704;52.532;6.426;2023-06-14T08:15:35;101805.53;;;20.96;71.05
63006;BME280;53704;52.532;6.426;2023-06-14T08:18:00;101808.31;;;21.03;72.18
63006;BME280;53704;52.532;6.426;2023-06-14T08:20:26;101808.31;;;21.10;69.55
63006;BME280;53704;52.532;6.426;2023-06-14T08:22:52;101810.19;;;21.16;67.68
63006;BME280;53704;52.532;6.426;2023-06-14T08:25:20;101813.97;;;21.28;67.77
63006;BME280;53704;52.532;6.426;2023-06-14T08:27:46;101818.63;;;21.41;65.75
63006;BME280;53704;52.532;6.426;2023-06-14T08:30:11;101807.44;;;21.36;63.62
63006;BME280;53704;52.532;6.426;2023-06-14T08:32:37;101810.59;;;21.60;65.35
63006;BME280;53704;52.532;6.426;2023-06-14T08:35:04;101816.53;;;21.50;62.47
63006;BME280;53704;52.532;6.426;2023-06-14T08:37:31;101809.34;;;21.62;64.89
63006;BME280;53704;52.532;6.426;2023-06-14T08:39:58;101822.41;;;21.67;62.02
63006;BME280;53704;52.532;6.426;2023-06-14T08:42:24;101812.25;;;21.81;62.35
63006;BME280;53704;52.532;6.426;2023-06-14T08:44:50;101810.50;;;21.93;63.67
63006;BME280;53704;52.532;6.426;2023-06-14T08:47:16;101812.19;;;22.01;61.56
63006;BME280;53704;52.532;6.426;2023-06-14T08:49:46;101805.59;;;22.15;61.27
63006;BME280;53704;52.532;6.426;2023-06-14T08:52:13;101791.00;;;22.21;60.66
63006;BME280;53704;52.532;6.426;2023-06-14T08:54:41;101795.81;;;22.33;59.13
63006;BME280;53704;52.532;6.426;2023-06-14T08:57:11;101789.19;;;22.54;59.33
63006;BME280;53704;52.532;6.426;2023-06-14T08:59:45;101793.34;;;22.63;57.79
63006;BME280;53704;52.532;6.426;2023-06-14T09:02:11;101780.25;;;22.65;57.42
63006;BME280;53704;52.532;6.426;2023-06-14T09:04:38;101785.28;;;22.68;58.56
63006;BME280;53704;52.532;6.426;2023-06-14T09:07:05;101795.06;;;22.57;54.86
63006;BME280;53704;52.532;6.426;2023-06-14T09:09:32;101798.78;;;22.38;52.57
63006;BME280;53704;52.532;6.426;2023-06-14T09:11:57;101787.66;;;22.65;54.33
63006;BME280;53704;52.532;6.426;2023-06-14T09:14:24;101792.53;;;22.88;54.57
63006;BME280;53704;52.532;6.426;2023-06-14T09:16:54;101798.38;;;22.98;54.66
63006;BME280;53704;52.532;6.426;2023-06-14T09:19:25;101808.09;;;23.26;52.18
63006;BME280;53704;52.532;6.426;2023-06-14T09:21:52;101801.84;;;23.19;50.64
63006;BME280;53704;52.532;6.426;2023-06-14T09:24:18;101798.53;;;23.03;51.81
63006;BME280;53704;52.532;6.426;2023-06-14T09:26:47;101799.66;;;22.95;53.25
63006;BME280;53704;52.532;6.426;2023-06-14T09:29:12;101795.81;;;23.28;52.68
63006;BME280;53704;52.532;6.426;2023-06-14T09:31:38;101789.50;;;23.46;52.69
63006;BME280;53704;52.532;6.426;2023-06-14T09:34:03;101802.13;;;23.36;52.45
63006;BME280;53704;52.532;6.426;2023-06-14T09:36:31;101798.94;;;23.57;52.15
63006;BME280;53704;52.532;6.426;2023-06-14T09:39:02;101797.19;;;23.63;52.62
63006;BME280;53704;52.532;6.426;2023-06-14T09:44:02;101783.31;;;23.07;51.12
63006;BME280;53704;52.532;6.426;2023-06-14T09:46:28;101795.22;;;23.26;52.05
63006;BME280;53704;52.532;6.426;2023-06-14T09:48:55;101791.53;;;23.76;51.74
63006;BME280;53704;52.532;6.426;2023-06-14T09:51:22;101800.13;;;23.43;48.74
63006;BME280;53704;52.532;6.426;2023-06-14T09:53:52;101794.94;;;23.09;48.23
63006;BME280;53704;52.532;6.426;2023-06-14T09:56:27;101801.63;;;23.39;47.57
63006;BME280;53704;52.532;6.426;2023-06-14T09:58:56;101796.88;;;23.27;51.02
63006;BME280;53704;52.532;6.426;2023-06-14T10:01:26;101798.41;;;23.67;51.37
63006;BME280;53704;52.532;6.426;2023-06-14T10:04:06;101793.53;;;24.25;50.44
63006;BME280;53704;52.532;6.426;2023-06-14T10:06:36;101798.00;;;24.07;47.95
63006;BME280;53704;52.532;6.426;2023-06-14T10:09:04;101802.59;;;24.44;48.20
63006;BME280;53704;52.532;6.426;2023-06-14T10:11:30;101798.50;;;24.46;49.90
63006;BME280;53704;52.532;6.426;2023-06-14T10:13:57;101794.56;;;24.42;48.29
63006;BME280;53704;52.532;6.426;2023-06-14T10:16:28;101797.34;;;24.05;46.07
63006;BME280;53704;52.532;6.426;2023-06-14T10:22:01;101802.94;;;24.66;45.76
63006;BME280;53704;52.532;6.426;2023-06-14T10:24:32;101797.03;;;24.92;46.19
63006;BME280;53704;52.532;6.426;2023-06-14T10:26:58;101812.97;;;25.14;45.97
63006;BME280;53704;52.532;6.426;2023-06-14T10:29:28;101807.09;;;24.38;46.30
63006;BME280;53704;52.532;6.426;2023-06-14T10:31:58;101802.28;;;25.06;44.70
63006;BME280;53704;52.532;6.426;2023-06-14T10:34:29;101814.28;;;24.58;43.60
63006;BME280;53704;52.532;6.426;2023-06-14T10:37:13;101805.06;;;25.06;44.14
63006;BME280;53704;52.532;6.426;2023-06-14T10:39:40;101796.19;;;25.04;44.11
63006;BME280;53704;52.532;6.426;2023-06-14T10:42:06;101790.06;;;24.90;44.18
63006;BME280;53704;52.532;6.426;2023-06-14T10:44:43;101804.16;;;25.36;44.17
63006;BME280;53704;52.532;6.426;2023-06-14T10:47:10;101801.00;;;25.20;41.04
63006;BME280;53704;52.532;6.426;2023-06-14T10:49:44;101797.66;;;25.30;43.68
63006;BME280;53704;52.532;6.426;2023-06-14T10:52:22;101796.59;;;25.31;41.39
63006;BME280;53704;52.532;6.426;2023-06-14T10:57:35;101805.09;;;24.76;41.51
63006;BME280;53704;52.532;6.426;2023-06-14T11:00:01;101801.09;;;25.14;42.29
63006;BME280;53704;52.532;6.426;2023-06-14T11:05:08;101788.81;;;25.63;42.88
63006;BME280;53704;52.532;6.426;2023-06-14T11:12:59;101788.69;;;25.58;43.16
63006;BME280;53704;52.532;6.426;2023-06-14T11:15:28;101791.91;;;25.55;43.96
63006;BME280;53704;52.532;6.426;2023-06-14T11:17:55;101781.72;;;25.44;43.49
63006;BME280;53704;52.532;6.426;2023-06-14T11:20:24;101782.59;;;26.21;41.40
63006;BME280;53704;52.532;6.426;2023-06-14T11:22:52;101779.75;;;26.04;42.82
63006;BME280;53704;52.532;6.426;2023-06-14T11:25:18;101780.53;;;25.63;40.45
63006;BME280;53704;52.532;6.426;2023-06-14T11:27:44;101779.78;;;25.80;41.61
63006;BME280;53704;52.532;6.426;2023-06-14T11:30:10;101766.53;;;25.30;41.86
63006;BME280;53704;52.532;6.426;2023-06-14T11:32:37;101780.00;;;26.02;39.97
63006;BME280;53704;52.532;6.426;2023-06-14T11:35:03;101769.09;;;25.83;40.50
63006;BME280;53704;52.532;6.426;2023-06-14T11:37:30;101764.56;;;26.30;42.56
63006;BME280;53704;52.532;6.426;2023-06-14T11:39:58;101770.19;;;25.71;40.46
63006;BME280;53704;52.532;6.426;2023-06-14T11:42:26;101772.31;;;26.62;41.34
63006;BME280;53704;52.532;6.426;2023-06-14T11:44:54;101765.69;;;25.93;38.66
63006;BME280;53704;52.532;6.426;2023-06-14T11:47:19;101756.28;;;26.93;41.66
63006;BME280;53704;52.532;6.426;2023-06-14T11:49:46;101771.13;;;26.00;38.13
63006;BME280;53704;52.532;6.426;2023-06-14T11:52:11;101783.56;;;26.14;39.78
63006;BME280;53704;52.532;6.426;2023-06-14T11:54:37;101780.91;;;26.20;39.32
63006;BME280;53704;52.532;6.426;2023-06-14T11:57:04;101761.16;;;26.85;40.30
63006;BME280;53704;52.532;6.426;2023-06-14T11:59:30;101758.88;;;27.33;39.10
63006;BME280;53704;52.532;6.426;2023-06-14T12:01:56;101775.84;;;27.42;39.39
63006;BME280;53704;52.532;6.426;2023-06-14T12:04:26;101769.25;;;26.75;38.12
63006;BME280;53704;52.532;6.426;2023-06-14T12:06:52;101771.34;;;26.85;37.79
63006;BME280;53704;52.532;6.426;2023-06-14T12:09:20;101770.25;;;26.86;38.43
63006;BME280;53704;52.532;6.426;2023-06-14T12:11:49;101759.91;;;26.47;36.70
63006;BME280;53704;52.532;6.426;2023-06-14T12:14:15;101750.75;;;26.93;39.56
63006;BME280;53704;52.532;6.426;2023-06-14T12:16:42;101755.50;;;26.80;38.64
63006;BME280;53704;52.532;6.426;2023-06-14T12:19:13;101758.31;;;26.51;39.27
63006;BME280;53704;52.532;6.426;2023-06-14T12:21:39;101762.19;;;26.67;40.91
63006;BME280;53704;52.532;6.426;2023-06-14T12:24:09;101768.22;;;25.95;38.86
63006;BME280;53704;52.532;6.426;2023-06-14T12:26:41;101763.88;;;27.36;39.83
63006;BME280;53704;52.532;6.426;2023-06-14T12:29:07;101762.88;;;27.25;38.86
63006;BME280;53704;52.532;6.426;2023-06-14T12:31:33;101759.19;;;26.40;37.30
63006;BME280;53704;52.532;6.426;2023-06-14T12:33:59;101774.22;;;26.61;38.67
63006;BME280;53704;52.532;6.426;2023-06-14T12:36:25;101766.38;;;27.21;39.15
63006;BME280;53704;52.532;6.426;2023-06-14T12:39:16;101768.06;;;27.39;38.34
63006;BME280;53704;52.532;6.426;2023-06-14T12:41:41;101765.53;;;28.21;37.22
63006;BME280;53704;52.532;6.426;2023-06-14T12:44:07;101768.34;;;27.59;36.90
63006;BME280;53704;52.532;6.426;2023-06-14T12:46:33;101764.78;;;27.42;36.53
63006;BME280;53704;52.532;6.426;2023-06-14T12:49:00;101753.72;;;27.42;38.32
63006;BME280;53704;52.532;6.426;2023-06-14T12:51:25;101765.31;;;27.05;38.33
63006;BME280;53704;52.532;6.426;2023-06-14T12:53:51;101768.31;;;27.76;37.78
63006;BME280;53704;52.532;6.426;2023-06-14T12:56:17;101768.13;;;28.05;38.29
63006;BME280;53704;52.532;6.426;2023-06-14T12:58:42;101763.47;;;28.60;39.04
63006;BME280;53704;52.532;6.426;2023-06-14T13:01:08;101768.63;;;28.02;39.25
63006;BME280;53704;52.532;6.426;2023-06-14T13:03:33;101764.50;;;27.83;37.87
63006;BME280;53704;52.532;6.426;2023-06-14T13:06:00;101767.97;;;27.51;35.52
63006;BME280;53704;52.532;6.426;2023-06-14T13:08:26;101774.31;;;27.51;37.56
63006;BME280;53704;52.532;6.426;2023-06-14T13:10:52;101769.59;;;27.13;37.49
63006;BME280;53704;52.532;6.426;2023-06-14T13:13:18;101764.78;;;28.03;37.23
63006;BME280;53704;52.532;6.426;2023-06-14T13:15:43;101762.94;;;28.36;36.02
63006;BME280;53704;52.532;6.426;2023-06-14T13:18:11;101766.38;;;28.76;36.55
63006;BME280;53704;52.532;6.426;2023-06-14T13:20:38;101767.59;;;28.85;35.17
63006;BME280;53704;52.532;6.426;2023-06-14T13:23:04;101765.69;;;28.09;34.33
63006;BME280;53704;52.532;6.426;2023-06-14T13:25:31;101772.91;;;28.92;35.82
63006;BME280;53704;52.532;6.426;2023-06-14T13:27:57;101766.19;;;28.87;35.03
63006;BME280;53704;52.532;6.426;2023-06-14T13:30:22;101766.06;;;29.37;34.51
63006;BME280;53704;52.532;6.426;2023-06-14T13:32:48;101774.03;;;28.63;35.46
63006;BME280;53704;52.532;6.426;2023-06-14T13:35:13;101772.44;;;28.18;33.23
63006;BME280;53704;52.532;6.426;2023-06-14T13:37:39;101767.00;;;28.28;31.90
63006;BME280;53704;52.532;6.426;2023-06-14T13:40:05;101766.16;;;28.82;34.25
63006;BME280;53704;52.532;6.426;2023-06-14T13:42:31;101773.28;;;28.73;35.02
63006;BME280;53704;52.532;6.426;2023-06-14T13:44:58;101765.66;;;28.91;35.15
63006;BME280;53704;52.532;6.426;2023-06-14T13:47:24;101764.06;;;28.95;34.34
63006;BME280;53704;52.532;6.426;2023-06-14T13:49:49;101764.59;;;29.29;33.97
63006;BME280;53704;52.532;6.426;2023-06-14T13:52:15;101750.81;;;29.02;32.77